sensor_id;sensor_type;location;lat;lon;timestamp;P1;durP1;ratioP1;P2;durP2;ratioP2
39872;SDS011;63160;48.854;9.292;2023-04-25T00:01:28;2.08;;;1.85;;
39872;SDS011;63160;48.854;9.292;2023-04-25T00:03:54;3.53;;;2.78;;
39872;SDS011;63160;48.854;9.292;2023-04-25T00:06:22;2.20;;;2.00;;
39872;SDS011;63160;48.854;9.292;2023-04-25T00:08:52;2.22;;;1.92;;
39872;SDS011;63160;48.854;9.292;2023-04-25T00:11:19;2.38;;;1.92;;
39872;SDS011;63160;48.854;9.292;2023-04-25T00:13:46;4.18;;;2.95;;
39872;SDS011;63160;48.854;9.292;2023-04-25T00:16:15;2.35;;;2.17;;
39872;SDS011;63160;48.854;9.292;2023-04-25T00:18:42;3.45;;;2.17;;
39872;SDS011;63160;48.854;9.292;2023-04-25T00:21:09;3.28;;;2.05;;
39872;SDS011;63160;48.854;9.292;2023-04-25T00:23:36;2.22;;;2.10;;
39872;SDS011;63160;48.854;9.292;2023-04-25T00:26:03;2.28;;;2.00;;
39872;SDS011;63160;48.854;9.292;2023-04-25T00:28:29;2.60;;;2.13;;
39872;SDS011;63160;48.854;9.292;2023-04-25T00:30:56;3.50;;;3.25;;
39872;SDS011;63160;48.854;9.292;2023-04-25T00:33:23;2.38;;;1.92;;
39872;SDS011;63160;48.854;9.292;2023-04-25T00:35:49;3.10;;;2.85;;
39872;SDS011;63160;48.854;9.292;2023-04-25T00:38:16;4.13;;;2.63;;
39872;SDS011;63160;48.854;9.292;2023-04-25T00:40:43;2.35;;;2.15;;
39872;SDS011;63160;48.854;9.292;2023-04-25T00:43:10;3.13;;;2.80;;
39872;SDS011;63160;48.854;9.292;2023-04-25T00:45:37;2.42;;;2.22;;
39872;SDS011;63160;48.854;9.292;2023-04-25T00:48:05;3.20;;;2.72;;
39872;SDS011;63160;48.854;9.292;2023-04-25T00:50:35;2.50;;;2.30;;
39872;SDS011;63160;48.854;9.292;2023-04-25T00:53:02;2.65;;;2.45;;
39872;SDS011;63160;48.854;9.292;2023-04-25T00:55:30;2.38;;;1.63;;
39872;SDS011;63160;48.854;9.292;2023-04-25T00:57:57;3.25;;;3.05;;
39872;SDS011;63160;48.854;9.292;2023-04-25T01:00:24;3.17;;;2.88;;
39872;SDS011;63160;48.854;9.292;2023-04-25T01:02:51;2.83;;;1.98;;
39872;SDS011;63160;48.854;9.292;2023-04-25T01:05:18;2.33;;;2.10;;
39872;SDS011;63160;48.854;9.292;2023-04-25T01:07:46;3.47;;;2.50;;
39872;SDS011;63160;48.854;9.292;2023-04-25T01:10:13;2.40;;;2.20;;
39872;SDS011;63160;48.854;9.292;2023-04-25T01:12:41;3.22;;;2.55;;
39872;SDS011;63160;48.854;9.292;2023-04-25T01:15:08;2.20;;;2.00;;
39872;SDS011;63160;48.854;9.292;2023-04-25T01:17:35;4.35;;;3.33;;
39872;SDS011;63160;48.854;9.292;2023-04-25T01:20:03;3.13;;;2.33;;
39872;SDS011;63160;48.854;9.292;2023-04-25T01:22:31;2.47;;;2.08;;
39872;SDS011;63160;48.854;9.292;2023-04-25T01:24:58;1.85;;;1.73;;
39872;SDS011;63160;48.854;9.292;2023-04-25T01:27:29;2.05;;;1.58;;
39872;SDS011;63160;48.854;9.292;2023-04-25T01:29:56;2.03;;;1.83;;
39872;SDS011;63160;48.854;9.292;2023-04-25T01:32:23;2.72;;;2.28;;
39872;SDS011;63160;48.854;9.292;2023-04-25T01:34:50;2.42;;;2.22;;
39872;SDS011;63160;48.854;9.292;2023-04-25T01:37:18;2.80;;;2.17;;
39872;SDS011;63160;48.854;9.292;2023-04-25T01:39:46;3.10;;;2.25;;
39872;SDS011;63160;48.854;9.292;2023-04-25T01:42:13;3.08;;;2.40;;
39872;SDS011;63160;48.854;9.292;2023-04-25T01:44:39;3.17;;;2.20;;
39872;SDS011;63160;48.854;9.292;2023-04-25T01:47:06;3.05;;;2.85;;
39872;SDS011;63160;48.854;9.292;2023-04-25T01:49:33;4.00;;;2.28;;
39872;SDS011;63160;48.854;9.292;2023-04-25T01:52:00;3.05;;;2.38;;
39872;SDS011;63160;48.854;9.292;2023-04-25T01:54:27;2.20;;;2.00;;
39872;SDS011;63160;48.854;9.292;2023-04-25T01:56:54;2.25;;;2.05;;
39872;SDS011;63160;48.854;9.292;2023-04-25T01:59:23;2.47;;;2.25;;
39872;SDS011;63160;48.854;9.292;2023-04-25T02:02:06;2.38;;;2.13;;
39872;SDS011;63160;48.854;9.292;2023-04-25T02:04:34;2.25;;;1.60;;
39872;SDS011;63160;48.854;9.292;2023-04-25T02:07:02;2.58;;;1.98;;
39872;SDS011;63160;48.854;9.292;2023-04-25T02:09:42;3.90;;;2.13;;
39872;SDS011;63160;48.854;9.292;2023-04-25T02:12:10;2.58;;;2.38;;
39872;SDS011;63160;48.854;9.292;2023-04-25T02:15:00;2.70;;;1.95;;
39872;SDS011;63160;48.854;9.292;2023-04-25T02:17:50;3.30;;;2.40;;
39872;SDS011;63160;48.854;9.292;2023-04-25T02:20:20;5.05;;;3.55;;
39872;SDS011;63160;48.854;9.292;2023-04-25T02:22:47;3.58;;;2.70;;
39872;SDS011;63160;48.854;9.292;2023-04-25T02:25:14;2.65;;;2.33;;
39872;SDS011;63160;48.854;9.292;2023-04-25T02:27:42;2.97;;;2.67;;
39872;SDS011;63160;48.854;9.292;2023-04-25T02:30:09;3.17;;;2.45;;
39872;SDS011;63160;48.854;9.292;2023-04-25T02:32:36;3.28;;;2.97;;
39872;SDS011;63160;48.854;9.292;2023-04-25T02:35:03;3.60;;;2.25;;
39872;SDS011;63160;48.854;9.292;2023-04-25T02:37:31;3.15;;;2.70;;
39872;SDS011;63160;48.854;9.292;2023-04-25T02:39:58;2.67;;;2.38;;
39872;SDS011;63160;48.854;9.292;2023-04-25T02:42:25;5.07;;;2.50;;
39872;SDS011;63160;48.854;9.292;2023-04-25T02:44:52;3.17;;;2.08;;
39872;SDS011;63160;48.854;9.292;2023-04-25T02:47:19;3.28;;;2.70;;
39872;SDS011;63160;48.854;9.292;2023-04-25T02:49:48;6.38;;;3.65;;
39872;SDS011;63160;48.854;9.292;2023-04-25T02:52:15;3.03;;;2.72;;
39872;SDS011;63160;48.854;9.292;2023-04-25T02:54:44;4.47;;;2.90;;
39872;SDS011;63160;48.854;9.292;2023-04-25T02:57:11;2.55;;;2.25;;
39872;SDS011;63160;48.854;9.292;2023-04-25T02:59:38;2.78;;;2.47;;
39872;SDS011;63160;48.854;9.292;2023-04-25T03:02:05;2.60;;;2.40;;
39872;SDS011;63160;48.854;9.292;2023-04-25T03:04:32;3.38;;;2.15;;
39872;SDS011;63160;48.854;9.292;2023-04-25T03:06:59;3.55;;;2.90;;
39872;SDS011;63160;48.854;9.292;2023-04-25T03:09:27;3.60;;;2.67;;
39872;SDS011;63160;48.854;9.292;2023-04-25T03:11:54;3.30;;;2.65;;
39872;SDS011;63160;48.854;9.292;2023-04-25T03:14:20;5.32;;;3.00;;
39872;SDS011;63160;48.854;9.292;2023-04-25T03:16:47;3.78;;;2.92;;
39872;SDS011;63160;48.854;9.292;2023-04-25T03:19:16;2.60;;;2.20;;
39872;SDS011;63160;48.854;9.292;2023-04-25T03:21:43;3.50;;;2.28;;
39872;SDS011;63160;48.854;9.292;2023-04-25T03:24:11;4.30;;;3.20;;
39872;SDS011;63160;48.854;9.292;2023-04-25T03:26:39;3.65;;;2.72;;
39872;SDS011;63160;48.854;9.292;2023-04-25T03:29:05;3.47;;;2.95;;
39872;SDS011;63160;48.854;9.292;2023-04-25T03:31:34;2.85;;;2.30;;
39872;SDS011;63160;48.854;9.292;2023-04-25T03:34:01;3.78;;;2.78;;
39872;SDS011;63160;48.854;9.292;2023-04-25T03:36:28;3.40;;;2.97;;
39872;SDS011;63160;48.854;9.292;2023-04-25T03:38:54;5.25;;;3.13;;
39872;SDS011;63160;48.854;9.292;2023-04-25T03:41:21;4.07;;;2.92;;
39872;SDS011;63160;48.854;9.292;2023-04-25T03:43:55;4.13;;;2.75;;
39872;SDS011;63160;48.854;9.292;2023-04-25T03:46:21;3.72;;;3.28;;
39872;SDS011;63160;48.854;9.292;2023-04-25T03:48:48;3.65;;;3.10;;
39872;SDS011;63160;48.854;9.292;2023-04-25T03:51:22;4.05;;;2.78;;
39872;SDS011;63160;48.854;9.292;2023-04-25T03:53:49;4.65;;;3.67;;
39872;SDS011;63160;48.854;9.292;2023-04-25T03:56:16;3.97;;;2.65;;
39872;SDS011;63160;48.854;9.292;2023-04-25T03:58:45;3.60;;;3.28;;
39872;SDS011;63160;48.854;9.292;2023-04-25T04:01:14;4.25;;;3.03;;
39872;SDS011;63160;48.854;9.292;2023-04-25T04:03:41;3.97;;;2.65;;
39872;SDS011;63160;48.854;9.292;2023-04-25T04:06:08;3.45;;;3.00;;
39872;SDS011;63160;48.854;9.292;2023-04-25T04:08:38;3.53;;;2.78;;
39872;SDS011;63160;48.854;9.292;2023-04-25T04:11:06;3.95;;;3.45;;
39872;SDS011;63160;48.854;9.292;2023-04-25T04:13:32;4.78;;;3.92;;
39872;SDS011;63160;48.854;9.292;2023-04-25T04:16:00;3.33;;;3.00;;
39872;SDS011;63160;48.854;9.292;2023-04-25T04:18:27;4.50;;;2.95;;
39872;SDS011;63160;48.854;9.292;2023-04-25T04:20:55;4.60;;;3.05;;
39872;SDS011;63160;48.854;9.292;2023-04-25T04:23:26;4.55;;;3.70;;
39872;SDS011;63160;48.854;9.292;2023-04-25T04:25:55;6.35;;;4.50;;
39872;SDS011;63160;48.854;9.292;2023-04-25T04:28:34;6.38;;;3.22;;
39872;SDS011;63160;48.854;9.292;2023-04-25T04:31:16;6.03;;;3.55;;
39872;SDS011;63160;48.854;9.292;2023-04-25T04:33:46;5.10;;;4.40;;
39872;SDS011;63160;48.854;9.292;2023-04-25T04:36:14;3.72;;;3.17;;
39872;SDS011;63160;48.854;9.292;2023-04-25T04:38:42;4.63;;;3.47;;
39872;SDS011;63160;48.854;9.292;2023-04-25T04:41:17;7.05;;;3.90;;
39872;SDS011;63160;48.854;9.292;2023-04-25T04:43:53;5.20;;;4.03;;
39872;SDS011;63160;48.854;9.292;2023-04-25T04:46:30;6.82;;;6.28;;
39872;SDS011;63160;48.854;9.292;2023-04-25T04:49:11;4.82;;;3.92;;
39872;SDS011;63160;48.854;9.292;2023-04-25T04:52:14;5.47;;;4.75;;
39872;SDS011;63160;48.854;9.292;2023-04-25T04:55:02;4.57;;;3.67;;
39872;SDS011;63160;48.854;9.292;2023-04-25T04:57:48;4.78;;;3.25;;
39872;SDS011;63160;48.854;9.292;2023-04-25T05:00:34;6.18;;;4.10;;
39872;SDS011;63160;48.854;9.292;2023-04-25T05:03:19;4.15;;;3.75;;
39872;SDS011;63160;48.854;9.292;2023-04-25T05:06:05;4.82;;;3.28;;
39872;SDS011;63160;48.854;9.292;2023-04-25T05:09:09;6.53;;;3.70;;
39872;SDS011;63160;48.854;9.292;2023-04-25T05:11:55;4.53;;;3.40;;
39872;SDS011;63160;48.854;9.292;2023-04-25T05:14:40;3.85;;;3.22;;
39872;SDS011;63160;48.854;9.292;2023-04-25T05:17:25;4.55;;;3.55;;
39872;SDS011;63160;48.854;9.292;2023-04-25T05:20:10;4.65;;;4.10;;
39872;SDS011;63160;48.854;9.292;2023-04-25T05:22:57;5.15;;;4.75;;
39872;SDS011;63160;48.854;9.292;2023-04-25T05:25:43;4.82;;;4.07;;
39872;SDS011;63160;48.854;9.292;2023-04-25T05:28:33;4.50;;;3.75;;
39872;SDS011;63160;48.854;9.292;2023-04-25T05:31:13;4.68;;;3.42;;
39872;SDS011;63160;48.854;9.292;2023-04-25T05:33:47;4.03;;;3.10;;
39872;SDS011;63160;48.854;9.292;2023-04-25T05:36:14;5.28;;;3.67;;
39872;SDS011;63160;48.854;9.292;2023-04-25T05:38:41;4.35;;;2.95;;
39872;SDS011;63160;48.854;9.292;2023-04-25T05:41:20;4.80;;;4.30;;
39872;SDS011;63160;48.854;9.292;2023-04-25T05:43:53;4.65;;;3.55;;
39872;SDS011;63160;48.854;9.292;2023-04-25T05:46:49;4.03;;;3.15;;
39872;SDS011;63160;48.854;9.292;2023-04-25T05:49:36;5.22;;;3.28;;
39872;SDS011;63160;48.854;9.292;2023-04-25T05:52:32;3.92;;;3.28;;
39872;SDS011;63160;48.854;9.292;2023-04-25T05:55:03;4.50;;;3.00;;
39872;SDS011;63160;48.854;9.292;2023-04-25T05:57:31;4.03;;;3.63;;
39872;SDS011;63160;48.854;9.292;2023-04-25T05:59:58;5.55;;;4.18;;
39872;SDS011;63160;48.854;9.292;2023-04-25T06:02:38;5.45;;;3.65;;
39872;SDS011;63160;48.854;9.292;2023-04-25T06:05:06;6.10;;;3.53;;
39872;SDS011;63160;48.854;9.292;2023-04-25T06:07:34;4.60;;;3.53;;
39872;SDS011;63160;48.854;9.292;2023-04-25T06:10:02;4.82;;;3.45;;
39872;SDS011;63160;48.854;9.292;2023-04-25T06:12:32;3.75;;;3.35;;
39872;SDS011;63160;48.854;9.292;2023-04-25T06:15:00;5.45;;;3.58;;
39872;SDS011;63160;48.854;9.292;2023-04-25T06:17:30;4.13;;;3.50;;
39872;SDS011;63160;48.854;9.292;2023-04-25T06:19:57;4.18;;;3.72;;
39872;SDS011;63160;48.854;9.292;2023-04-25T06:22:24;4.72;;;3.35;;
39872;SDS011;63160;48.854;9.292;2023-04-25T06:24:51;5.80;;;4.30;;
39872;SDS011;63160;48.854;9.292;2023-04-25T06:27:17;4.28;;;3.83;;
39872;SDS011;63160;48.854;9.292;2023-04-25T06:29:45;5.60;;;4.03;;
39872;SDS011;63160;48.854;9.292;2023-04-25T06:32:13;6.70;;;5.05;;
39872;SDS011;63160;48.854;9.292;2023-04-25T06:34:39;5.38;;;3.75;;
39872;SDS011;63160;48.854;9.292;2023-04-25T06:37:07;5.28;;;4.80;;
39872;SDS011;63160;48.854;9.292;2023-04-25T06:39:34;5.28;;;3.63;;
39872;SDS011;63160;48.854;9.292;2023-04-25T06:42:06;3.53;;;2.92;;
39872;SDS011;63160;48.854;9.292;2023-04-25T06:44:45;5.55;;;3.70;;
39872;SDS011;63160;48.854;9.292;2023-04-25T06:47:13;4.88;;;3.78;;
39872;SDS011;63160;48.854;9.292;2023-04-25T06:49:41;3.95;;;3.13;;
39872;SDS011;63160;48.854;9.292;2023-04-25T06:52:09;4.35;;;3.42;;
39872;SDS011;63160;48.854;9.292;2023-04-25T06:54:37;3.95;;;3.10;;
39872;SDS011;63160;48.854;9.292;2023-04-25T06:57:16;5.03;;;3.28;;
39872;SDS011;63160;48.854;9.292;2023-04-25T06:59:43;5.55;;;3.90;;
39872;SDS011;63160;48.854;9.292;2023-04-25T07:02:10;4.45;;;3.97;;
39872;SDS011;63160;48.854;9.292;2023-04-25T07:04:38;3.97;;;2.75;;
39872;SDS011;63160;48.854;9.292;2023-04-25T07:07:05;4.53;;;4.13;;
39872;SDS011;63160;48.854;9.292;2023-04-25T07:09:38;3.40;;;3.10;;
39872;SDS011;63160;48.854;9.292;2023-04-25T07:12:05;4.03;;;2.92;;
39872;SDS011;63160;48.854;9.292;2023-04-25T07:14:33;4.13;;;3.10;;
39872;SDS011;63160;48.854;9.292;2023-04-25T07:17:00;4.32;;;3.45;;
39872;SDS011;63160;48.854;9.292;2023-04-25T07:19:29;3.75;;;2.92;;
39872;SDS011;63160;48.854;9.292;2023-04-25T07:21:59;4.28;;;3.80;;
39872;SDS011;63160;48.854;9.292;2023-04-25T07:24:26;4.15;;;3.53;;
39872;SDS011;63160;48.854;9.292;2023-04-25T07:26:54;4.72;;;3.75;;
39872;SDS011;63160;48.854;9.292;2023-04-25T07:29:20;3.88;;;3.05;;
39872;SDS011;63160;48.854;9.292;2023-04-25T07:31:47;3.63;;;3.22;;
39872;SDS011;63160;48.854;9.292;2023-04-25T07:34:14;4.15;;;3.42;;
39872;SDS011;63160;48.854;9.292;2023-04-25T07:36:43;3.17;;;2.88;;
39872;SDS011;63160;48.854;9.292;2023-04-25T07:39:09;3.35;;;2.97;;
39872;SDS011;63160;48.854;9.292;2023-04-25T07:41:37;5.75;;;3.15;;
39872;SDS011;63160;48.854;9.292;2023-04-25T07:44:05;3.83;;;2.88;;
39872;SDS011;63160;48.854;9.292;2023-04-25T07:46:33;4.55;;;2.88;;
39872;SDS011;63160;48.854;9.292;2023-04-25T07:49:02;3.97;;;3.22;;
39872;SDS011;63160;48.854;9.292;2023-04-25T07:51:29;6.40;;;2.72;;
39872;SDS011;63160;48.854;9.292;2023-04-25T07:53:59;4.10;;;3.05;;
39872;SDS011;63160;48.854;9.292;2023-04-25T07:56:27;4.40;;;3.00;;
39872;SDS011;63160;48.854;9.292;2023-04-25T07:59:07;3.95;;;3.15;;
39872;SDS011;63160;48.854;9.292;2023-04-25T08:01:33;4.60;;;4.20;;
39872;SDS011;63160;48.854;9.292;2023-04-25T08:04:03;5.55;;;4.88;;
39872;SDS011;63160;48.854;9.292;2023-04-25T08:06:46;6.15;;;4.93;;
39872;SDS011;63160;48.854;9.292;2023-04-25T08:09:20;6.03;;;5.07;;
39872;SDS011;63160;48.854;9.292;2023-04-25T08:11:47;7.30;;;5.13;;
39872;SDS011;63160;48.854;9.292;2023-04-25T08:16:44;7.18;;;5.10;;
39872;SDS011;63160;48.854;9.292;2023-04-25T08:19:12;8.02;;;6.07;;
39872;SDS011;63160;48.854;9.292;2023-04-25T08:21:39;7.88;;;5.55;;
39872;SDS011;63160;48.854;9.292;2023-04-25T08:24:10;10.10;;;6.38;;
39872;SDS011;63160;48.854;9.292;2023-04-25T08:26:39;7.50;;;6.32;;
39872;SDS011;63160;48.854;9.292;2023-04-25T08:29:09;9.75;;;7.05;;
39872;SDS011;63160;48.854;9.292;2023-04-25T08:31:38;9.35;;;7.50;;
39872;SDS011;63160;48.854;9.292;2023-04-25T08:34:06;10.48;;;9.40;;
39872;SDS011;63160;48.854;9.292;2023-04-25T08:36:38;9.73;;;7.45;;
39872;SDS011;63160;48.854;9.292;2023-04-25T08:39:36;9.38;;;7.30;;
39872;SDS011;63160;48.854;9.292;2023-04-25T08:42:26;11.30;;;7.78;;
39872;SDS011;63160;48.854;9.292;2023-04-25T08:44:54;11.05;;;6.88;;
39872;SDS011;63160;48.854;9.292;2023-04-25T08:47:25;9.73;;;8.73;;
39872;SDS011;63160;48.854;9.292;2023-04-25T08:49:55;9.77;;;7.55;;
39872;SDS011;63160;48.854;9.292;2023-04-25T08:52:23;12.98;;;8.13;;
39872;SDS011;63160;48.854;9.292;2023-04-25T08:57:20;11.25;;;7.63;;
39872;SDS011;63160;48.854;9.292;2023-04-25T08:59:48;10.88;;;7.97;;
39872;SDS011;63160;48.854;9.292;2023-04-25T09:02:16;12.27;;;8.43;;
39872;SDS011;63160;48.854;9.292;2023-04-25T09:04:47;12.27;;;9.73;;
39872;SDS011;63160;48.854;9.292;2023-04-25T09:07:14;11.45;;;7.32;;
39872;SDS011;63160;48.854;9.292;2023-04-25T09:09:45;12.20;;;9.20;;
39872;SDS011;63160;48.854;9.292;2023-04-25T09:12:15;12.32;;;7.47;;
39872;SDS011;63160;48.854;9.292;2023-04-25T09:15:00;10.75;;;8.75;;
39872;SDS011;63160;48.854;9.292;2023-04-25T09:18:00;10.30;;;7.35;;
39872;SDS011;63160;48.854;9.292;2023-04-25T09:20:32;9.85;;;7.00;;
39872;SDS011;63160;48.854;9.292;2023-04-25T09:23:03;9.07;;;6.70;;
39872;SDS011;63160;48.854;9.292;2023-04-25T09:25:34;9.68;;;8.00;;
39872;SDS011;63160;48.854;9.292;2023-04-25T09:28:07;12.02;;;7.53;;
39872;SDS011;63160;48.854;9.292;2023-04-25T09:30:34;8.75;;;5.88;;
39872;SDS011;63160;48.854;9.292;2023-04-25T09:33:29;8.45;;;6.53;;
39872;SDS011;63160;48.854;9.292;2023-04-25T09:36:06;10.25;;;6.53;;
39872;SDS011;63160;48.854;9.292;2023-04-25T09:38:44;8.13;;;6.68;;
39872;SDS011;63160;48.854;9.292;2023-04-25T09:41:21;9.20;;;7.40;;
39872;SDS011;63160;48.854;9.292;2023-04-25T09:43:49;12.38;;;7.57;;
39872;SDS011;63160;48.854;9.292;2023-04-25T09:46:18;8.35;;;6.47;;
39872;SDS011;63160;48.854;9.292;2023-04-25T09:48:52;11.77;;;8.15;;
39872;SDS011;63160;48.854;9.292;2023-04-25T09:51:27;10.38;;;7.53;;
39872;SDS011;63160;48.854;9.292;2023-04-25T09:53:57;9.35;;;7.47;;
39872;SDS011;63160;48.854;9.292;2023-04-25T09:56:31;13.95;;;8.50;;
39872;SDS011;63160;48.854;9.292;2023-04-25T09:59:05;10.25;;;7.25;;
39872;SDS011;63160;48.854;9.292;2023-04-25T10:01:34;11.45;;;8.55;;
39872;SDS011;63160;48.854;9.292;2023-04-25T10:04:12;10.23;;;7.57;;
39872;SDS011;63160;48.854;9.292;2023-04-25T10:06:48;11.45;;;9.43;;
39872;SDS011;63160;48.854;9.292;2023-04-25T10:09:17;13.27;;;7.88;;
39872;SDS011;63160;48.854;9.292;2023-04-25T10:11:46;9.07;;;6.80;;
39872;SDS011;63160;48.854;9.292;2023-04-25T10:14:14;10.93;;;6.88;;
39872;SDS011;63160;48.854;9.292;2023-04-25T10:16:42;11.02;;;8.25;;
39872;SDS011;63160;48.854;9.292;2023-04-25T10:19:09;8.70;;;6.65;;
39872;SDS011;63160;48.854;9.292;2023-04-25T10:21:44;9.50;;;7.22;;
39872;SDS011;63160;48.854;9.292;2023-04-25T10:24:14;7.85;;;6.13;;
39872;SDS011;63160;48.854;9.292;2023-04-25T10:26:41;8.00;;;6.03;;
39872;SDS011;63160;48.854;9.292;2023-04-25T10:29:09;7.43;;;5.22;;
39872;SDS011;63160;48.854;9.292;2023-04-25T10:31:44;7.50;;;5.53;;
39872;SDS011;63160;48.854;9.292;2023-04-25T10:34:12;6.07;;;4.85;;
39872;SDS011;63160;48.854;9.292;2023-04-25T10:36:38;7.30;;;6.60;;
39872;SDS011;63160;48.854;9.292;2023-04-25T10:39:06;8.40;;;6.13;;
39872;SDS011;63160;48.854;9.292;2023-04-25T10:41:45;7.47;;;5.68;;
39872;SDS011;63160;48.854;9.292;2023-04-25T10:44:14;9.75;;;6.28;;
39872;SDS011;63160;48.854;9.292;2023-04-25T10:46:41;7.78;;;5.53;;
39872;SDS011;63160;48.854;9.292;2023-04-25T10:49:11;8.30;;;5.50;;
39872;SDS011;63160;48.854;9.292;2023-04-25T10:54:40;8.18;;;5.65;;
39872;SDS011;63160;48.854;9.292;2023-04-25T10:57:23;9.77;;;6.10;;
39872;SDS011;63160;48.854;9.292;2023-04-25T10:59:52;8.40;;;6.15;;
39872;SDS011;63160;48.854;9.292;2023-04-25T11:02:19;10.82;;;6.50;;
39872;SDS011;63160;48.854;9.292;2023-04-25T11:04:46;8.88;;;5.50;;
39872;SDS011;63160;48.854;9.292;2023-04-25T11:09:46;7.68;;;5.38;;
39872;SDS011;63160;48.854;9.292;2023-04-25T11:12:13;7.32;;;5.57;;
39872;SDS011;63160;48.854;9.292;2023-04-25T11:14:41;11.05;;;6.07;;
39872;SDS011;63160;48.854;9.292;2023-04-25T11:17:08;10.40;;;6.15;;
39872;SDS011;63160;48.854;9.292;2023-04-25T11:19:35;8.25;;;5.35;;
39872;SDS011;63160;48.854;9.292;2023-04-25T11:22:02;11.82;;;7.85;;
39872;SDS011;63160;48.854;9.292;2023-04-25T11:24:30;9.35;;;5.63;;
39872;SDS011;63160;48.854;9.292;2023-04-25T11:26:58;10.80;;;5.75;;
39872;SDS011;63160;48.854;9.292;2023-04-25T11:29:26;8.30;;;5.90;;
39872;SDS011;63160;48.854;9.292;2023-04-25T11:31:54;9.80;;;5.28;;
39872;SDS011;63160;48.854;9.292;2023-04-25T11:34:24;7.15;;;5.10;;
39872;SDS011;63160;48.854;9.292;2023-04-25T11:36:52;6.55;;;5.18;;
39872;SDS011;63160;48.854;9.292;2023-04-25T11:39:19;9.75;;;5.88;;
39872;SDS011;63160;48.854;9.292;2023-04-25T11:41:47;8.02;;;6.15;;
39872;SDS011;63160;48.854;9.292;2023-04-25T11:44:17;8.02;;;5.07;;
39872;SDS011;63160;48.854;9.292;2023-04-25T11:46:44;6.93;;;4.68;;
39872;SDS011;63160;48.854;9.292;2023-04-25T11:49:12;5.88;;;4.85;;
39872;SDS011;63160;48.854;9.292;2023-04-25T11:51:40;6.97;;;4.35;;
39872;SDS011;63160;48.854;9.292;2023-04-25T11:54:10;5.07;;;4.43;;
39872;SDS011;63160;48.854;9.292;2023-04-25T11:56:44;4.63;;;3.97;;
39872;SDS011;63160;48.854;9.292;2023-04-25T11:59:11;5.88;;;4.15;;
39872;SDS011;63160;48.854;9.292;2023-04-25T12:01:40;6.00;;;5.07;;
39872;SDS011;63160;48.854;9.292;2023-04-25T12:06:42;7.07;;;6.38;;
39872;SDS011;63160;48.854;9.292;2023-04-25T12:09:10;7.72;;;5.28;;
39872;SDS011;63160;48.854;9.292;2023-04-25T12:11:46;7.40;;;5.40;;
39872;SDS011;63160;48.854;9.292;2023-04-25T12:14:23;6.13;;;4.93;;
39872;SDS011;63160;48.854;9.292;2023-04-25T12:16:51;5.63;;;4.65;;
39872;SDS011;63160;48.854;9.292;2023-04-25T12:19:19;6.63;;;4.45;;
39872;SDS011;63160;48.854;9.292;2023-04-25T12:21:46;8.23;;;6.20;;
39872;SDS011;63160;48.854;9.292;2023-04-25T12:24:21;8.30;;;6.63;;
39872;SDS011;63160;48.854;9.292;2023-04-25T12:26:53;8.68;;;6.32;;
39872;SDS011;63160;48.854;9.292;2023-04-25T12:29:23;9.02;;;5.70;;
39872;SDS011;63160;48.854;9.292;2023-04-25T12:31:57;8.05;;;5.78;;
39872;SDS011;63160;48.854;9.292;2023-04-25T12:34:24;8.20;;;5.40;;
39872;SDS011;63160;48.854;9.292;2023-04-25T12:36:51;8.75;;;5.45;;
39872;SDS011;63160;48.854;9.292;2023-04-25T12:39:19;8.85;;;5.60;;
39872;SDS011;63160;48.854;9.292;2023-04-25T12:41:49;8.75;;;5.70;;
39872;SDS011;63160;48.854;9.292;2023-04-25T12:44:16;10.20;;;6.88;;
39872;SDS011;63160;48.854;9.292;2023-04-25T12:46:43;10.32;;;6.60;;
39872;SDS011;63160;48.854;9.292;2023-04-25T12:49:10;9.27;;;6.70;;
39872;SDS011;63160;48.854;9.292;2023-04-25T12:51:42;10.38;;;6.38;;
39872;SDS011;63160;48.854;9.292;2023-04-25T12:54:09;10.20;;;6.80;;
39872;SDS011;63160;48.854;9.292;2023-04-25T12:56:36;9.27;;;6.70;;
39872;SDS011;63160;48.854;9.292;2023-04-25T12:59:03;8.80;;;6.90;;
39872;SDS011;63160;48.854;9.292;2023-04-25T13:01:29;11.23;;;7.38;;
39872;SDS011;63160;48.854;9.292;2023-04-25T13:03:58;11.35;;;7.90;;
39872;SDS011;63160;48.854;9.292;2023-04-25T13:06:25;11.25;;;7.43;;
39872;SDS011;63160;48.854;9.292;2023-04-25T13:08:52;11.43;;;7.28;;
39872;SDS011;63160;48.854;9.292;2023-04-25T13:11:20;12.25;;;7.18;;
39872;SDS011;63160;48.854;9.292;2023-04-25T13:13:46;11.95;;;9.52;;
39872;SDS011;63160;48.854;9.292;2023-04-25T13:16:13;10.20;;;6.30;;
39872;SDS011;63160;48.854;9.292;2023-04-25T13:18:40;8.77;;;6.47;;
39872;SDS011;63160;48.854;9.292;2023-04-25T13:21:08;9.63;;;6.32;;
39872;SDS011;63160;48.854;9.292;2023-04-25T13:23:36;14.02;;;6.70;;
39872;SDS011;63160;48.854;9.292;2023-04-25T13:26:03;8.85;;;6.63;;
39872;SDS011;63160;48.854;9.292;2023-04-25T13:28:29;12.80;;;7.45;;
39872;SDS011;63160;48.854;9.292;2023-04-25T13:30:56;8.73;;;6.22;;
39872;SDS011;63160;48.854;9.292;2023-04-25T13:33:24;9.93;;;6.72;;
39872;SDS011;63160;48.854;9.292;2023-04-25T13:35:52;10.10;;;6.78;;
39872;SDS011;63160;48.854;9.292;2023-04-25T13:38:24;10.48;;;6.28;;
39872;SDS011;63160;48.854;9.292;2023-04-25T13:40:52;11.82;;;6.88;;
39872;SDS011;63160;48.854;9.292;2023-04-25T13:43:22;10.55;;;7.28;;
39872;SDS011;63160;48.854;9.292;2023-04-25T13:45:49;9.63;;;6.78;;
39872;SDS011;63160;48.854;9.292;2023-04-25T13:48:17;8.75;;;6.30;;
39872;SDS011;63160;48.854;9.292;2023-04-25T13:50:45;12.23;;;8.07;;
39872;SDS011;63160;48.854;9.292;2023-04-25T13:53:12;12.90;;;8.38;;
39872;SDS011;63160;48.854;9.292;2023-04-25T13:55:39;15.13;;;8.93;;
39872;SDS011;63160;48.854;9.292;2023-04-25T13:58:06;13.38;;;9.02;;
39872;SDS011;63160;48.854;9.292;2023-04-25T14:00:37;17.13;;;10.52;;
39872;SDS011;63160;48.854;9.292;2023-04-25T14:03:05;14.98;;;9.63;;
39872;SDS011;63160;48.854;9.292;2023-04-25T14:05:35;16.40;;;11.15;;
39872;SDS011;63160;48.854;9.292;2023-04-25T14:08:06;13.57;;;11.25;;
39872;SDS011;63160;48.854;9.292;2023-04-25T14:10:34;16.20;;;10.35;;
39872;SDS011;63160;48.854;9.292;2023-04-25T14:13:01;11.85;;;9.00;;
39872;SDS011;63160;48.854;9.292;2023-04-25T14:15:31;14.20;;;8.88;;
39872;SDS011;63160;48.854;9.292;2023-04-25T14:17:59;13.27;;;8.77;;
39872;SDS011;63160;48.854;9.292;2023-04-25T14:20:26;11.50;;;8.38;;
39872;SDS011;63160;48.854;9.292;2023-04-25T14:22:53;15.98;;;9.40;;
39872;SDS011;63160;48.854;9.292;2023-04-25T14:25:23;10.68;;;8.10;;
39872;SDS011;63160;48.854;9.292;2023-04-25T14:27:50;12.88;;;10.27;;
39872;SDS011;63160;48.854;9.292;2023-04-25T14:30:20;12.52;;;8.95;;
39872;SDS011;63160;48.854;9.292;2023-04-25T14:32:50;12.02;;;8.95;;
39872;SDS011;63160;48.854;9.292;2023-04-25T14:35:17;12.98;;;9.35;;
39872;SDS011;63160;48.854;9.292;2023-04-25T14:37:44;11.70;;;8.55;;
39872;SDS011;63160;48.854;9.292;2023-04-25T14:40:11;14.55;;;9.30;;
39872;SDS011;63160;48.854;9.292;2023-04-25T14:42:39;11.48;;;8.88;;
39872;SDS011;63160;48.854;9.292;2023-04-25T14:45:07;13.20;;;9.30;;
39872;SDS011;63160;48.854;9.292;2023-04-25T14:47:38;10.25;;;8.48;;
39872;SDS011;63160;48.854;9.292;2023-04-25T14:50:05;12.77;;;7.85;;
39872;SDS011;63160;48.854;9.292;2023-04-25T14:52:33;12.27;;;8.45;;
39872;SDS011;63160;48.854;9.292;2023-04-25T14:55:01;10.68;;;7.25;;
39872;SDS011;63160;48.854;9.292;2023-04-25T14:57:32;10.88;;;7.38;;
39872;SDS011;63160;48.854;9.292;2023-04-25T14:59:59;9.18;;;7.10;;
39872;SDS011;63160;48.854;9.292;2023-04-25T15:02:26;13.23;;;8.43;;
39872;SDS011;63160;48.854;9.292;2023-04-25T15:04:54;11.27;;;7.47;;
39872;SDS011;63160;48.854;9.292;2023-04-25T15:07:22;10.10;;;7.47;;
39872;SDS011;63160;48.854;9.292;2023-04-25T15:09:49;9.43;;;6.97;;
39872;SDS011;63160;48.854;9.292;2023-04-25T15:12:16;8.98;;;6.25;;
39872;SDS011;63160;48.854;9.292;2023-04-25T15:14:43;9.65;;;6.05;;
39872;SDS011;63160;48.854;9.292;2023-04-25T15:17:10;11.27;;;8.70;;